Time;durP1;ratioP1;P1;durP2;ratioP2;P2;SDS_P1;SDS_P2;PMS_P1;PMS_P2;Temp;Humidity;BMP_temperature;BMP_pressure;BME280_temperature;BME280_humidity;BME280_pressure;Samples;Min_cycle;Max_cycle;Signal;HPM_P1;HPM_P2
2023/06/08 00:01:45;;;;;;;7.65;4.32;;;19.50;99.90;;;;;;5055232;28;20059;-50
2023/06/08 00:04:12;;;;;;;5.68;4.75;;;19.50;99.90;;;;;;5055262;28;20067;-51
2023/06/08 00:06:40;;;;;;;6.57;4.95;;;19.40;99.90;;;;;;5074047;28;20033;-49
2023/06/08 00:09:06;;;;;;;6.38;4.18;;;19.40;99.90;;;;;;5074089;28;20028;-50
2023/06/08 00:11:32;;;;;;;6.05;4.55;;;19.50;99.90;;;;;;5054944;28;20388;-50
2023/06/08 00:13:59;;;;;;;6.78;4.55;;;19.30;99.90;;;;;;5073742;28;20049;-50
2023/06/08 00:16:27;;;;;;;6.82;5.03;;;19.40;99.90;;;;;;5073566;28;20032;-50
2023/06/08 00:18:56;;;;;;;8.98;4.80;;;19.30;99.90;;;;;;5054874;28;20097;-50
2023/06/08 00:21:29;;;;;;;6.18;4.00;;;19.40;99.90;;;;;;5054971;28;20036;-50
2023/06/08 00:23:55;;;;;;;8.07;5.22;;;19.30;99.90;;;;;;5023499;28;20492;-50
2023/06/08 00:26:25;;;;;;;5.90;4.43;;;19.50;99.90;;;;;;5073394;28;20063;-50
2023/06/08 00:28:51;;;;;;;6.28;4.47;;;19.50;99.90;;;;;;5073717;28;20048;-50
2023/06/08 00:31:17;;;;;;;9.57;4.40;;;19.50;99.90;;;;;;5073641;28;20029;-50
2023/06/08 00:33:42;;;;;;;6.78;4.35;;;19.60;99.90;;;;;;5054740;28;20032;-50
2023/06/08 00:36:08;;;;;;;9.15;4.63;;;19.40;99.90;;;;;;5054659;28;20036;-50
2023/06/08 00:38:34;;;;;;;7.25;4.57;;;19.50;99.90;;;;;;5073236;28;20032;-50
2023/06/08 00:41:01;;;;;;;7.40;5.75;;;19.40;99.90;;;;;;5054764;28;20063;-50
2023/06/08 00:43:26;;;;;;;11.15;8.45;;;19.40;99.90;;;;;;5071053;28;20059;-50
2023/06/08 00:45:55;;;;;;;14.52;11.38;;;19.30;99.90;;;;;;5073563;28;20070;-50
2023/06/08 00:48:21;;;;;;;11.45;7.38;;;19.10;99.90;;;;;;5073111;28;20030;-50
2023/06/08 00:50:48;;;;;;;10.75;5.20;;;19.10;99.90;;;;;;5072321;28;20367;-50
2023/06/08 00:53:14;;;;;;;6.05;4.55;;;19.10;99.90;;;;;;5072830;28;20391;-50
2023/06/08 00:55:43;;;;;;;7.20;4.40;;;19.30;99.90;;;;;;5073577;28;20039;-50
2023/06/08 00:58:13;;;;;;;6.28;4.30;;;19.40;99.90;;;;;;5073171;28;20037;-50
2023/06/08 01:00:44;;;;;;;5.28;4.18;;;19.20;99.90;;;;;;5073464;28;20115;-50
2023/06/08 01:03:10;;;;;;;5.40;3.93;;;19.30;99.90;;;;;;5073047;28;20037;-50
2023/06/08 01:05:38;;;;;;;5.85;4.32;;;19.30;99.90;;;;;;5054469;28;20094;-50
2023/06/08 01:08:29;;;;;;;8.02;4.10;;;19.30;99.90;;;;;;5023469;28;20074;-50
2023/06/08 01:11:22;;;;;;;8.10;4.17;;;19.20;99.90;;;;;;5077164;28;20036;-50
2023/06/08 01:14:21;;;;;;;5.60;3.90;;;19.30;99.90;;;;;;5075166;28;20323;-50
2023/06/08 01:16:49;;;;;;;5.50;3.88;;;19.30;99.90;;;;;;5014987;28;20128;-50
2023/06/08 01:19:28;;;;;;;6.60;4.78;;;19.10;99.90;;;;;;5014749;28;20041;-50
2023/06/08 01:21:54;;;;;;;4.93;3.72;;;19.10;99.90;;;;;;5015061;28;20045;-50
2023/06/08 01:24:23;;;;;;;6.55;3.97;;;19.10;99.90;;;;;;5014826;28;20038;-50
2023/06/08 01:26:50;;;;;;;7.22;4.22;;;19.10;99.90;;;;;;5014989;28;20548;-50
2023/06/08 01:29:17;;;;;;;5.72;4.53;;;19.20;99.90;;;;;;5014873;28;20108;-50
2023/06/08 01:31:43;;;;;;;11.65;8.27;;;19.30;99.90;;;;;;5014703;28;20073;-50
2023/06/08 01:34:11;;;;;;;9.68;7.90;;;19.30;99.90;;;;;;5014831;28;20065;-50
2023/06/08 01:36:59;;;;;;;13.07;7.95;;;19.20;99.90;;;;;;4981882;28;20034;-50
2023/06/08 01:39:50;;;;;;;8.20;5.88;;;19.10;99.90;;;;;;5014560;28;20112;-50
2023/06/08 01:42:19;;;;;;;16.33;10.50;;;18.90;99.90;;;;;;4981934;28;20041;-50
2023/06/08 01:44:55;;;;;;;17.75;11.57;;;18.80;99.90;;;;;;5014482;28;20410;-50
2023/06/08 01:47:25;;;;;;;11.75;8.40;;;18.70;99.90;;;;;;5014556;28;20038;-50
2023/06/08 01:49:54;;;;;;;6.80;5.57;;;18.80;99.90;;;;;;5014838;28;20032;-50
2023/06/08 01:52:20;;;;;;;9.15;5.00;;;18.80;99.90;;;;;;5024176;28;20055;-50
2023/06/08 01:54:46;;;;;;;4.85;3.75;;;18.90;99.90;;;;;;5076328;28;20419;-50
2023/06/08 01:57:12;;;;;;;6.97;3.90;;;18.90;99.90;;;;;;5076043;28;20472;-50
2023/06/08 01:59:37;;;;;;;5.07;3.83;;;18.90;99.90;;;;;;5076269;28;20080;-52
2023/06/08 02:02:03;;;;;;;7.50;4.55;;;18.90;99.90;;;;;;5075970;28;20139;-51
2023/06/08 02:04:30;;;;;;;5.60;3.70;;;19.10;99.90;;;;;;5075842;28;20411;-51
2023/06/08 02:06:56;;;;;;;5.20;4.07;;;19.10;99.90;;;;;;5075961;28;20058;-50
2023/06/08 02:09:22;;;;;;;6.97;4.20;;;19.20;99.90;;;;;;5053758;28;20029;-50
2023/06/08 02:11:48;;;;;;;7.10;4.18;;;19.20;99.90;;;;;;5053923;28;20488;-50
2023/06/08 02:14:14;;;;;;;10.85;3.92;;;19.30;99.90;;;;;;5054574;28;20033;-50
2023/06/08 02:16:40;;;;;;;5.00;3.83;;;19.40;99.90;;;;;;5055955;28;20107;-50
2023/06/08 02:19:06;;;;;;;7.55;4.25;;;19.30;99.90;;;;;;5055249;28;20096;-50
2023/06/08 02:21:32;;;;;;;4.90;3.95;;;19.20;99.90;;;;;;5055511;28;20029;-50
2023/06/08 02:23:58;;;;;;;5.55;3.55;;;18.90;99.90;;;;;;5033180;28;20033;-50
2023/06/08 02:26:24;;;;;;;5.65;3.90;;;19.00;99.90;;;;;;4980825;28;20034;-50
2023/06/08 02:28:49;;;;;;;4.65;3.83;;;19.20;99.90;;;;;;4997043;28;20397;-50
2023/06/08 02:31:15;;;;;;;4.70;3.83;;;19.20;99.90;;;;;;4996953;28;20648;-50
2023/06/08 02:33:41;;;;;;;5.90;4.00;;;19.10;99.90;;;;;;5013729;28;20054;-50
2023/06/08 02:36:09;;;;;;;7.22;4.15;;;19.10;99.90;;;;;;5013680;28;20049;-50
2023/06/08 02:38:35;;;;;;;5.90;4.20;;;19.20;99.90;;;;;;5013543;28;20046;-50
2023/06/08 02:41:01;;;;;;;5.18;3.67;;;19.10;99.90;;;;;;5013468;28;20038;-50
2023/06/08 02:43:26;;;;;;;6.22;3.95;;;19.10;99.90;;;;;;5013292;28;20476;-50
2023/06/08 02:45:52;;;;;;;5.55;4.05;;;19.00;99.90;;;;;;4980546;28;20034;-50
2023/06/08 02:48:18;;;;;;;5.40;4.13;;;18.90;99.90;;;;;;5013434;28;20026;-50
2023/06/08 02:50:43;;;;;;;5.75;3.97;;;18.90;99.90;;;;;;5013175;28;20041;-50
2023/06/08 02:53:11;;;;;;;5.78;4.20;;;19.00;99.90;;;;;;5013274;28;20042;-50
2023/06/08 02:55:36;;;;;;;5.03;4.00;;;18.90;99.90;;;;;;5044097;28;20047;-50
2023/06/08 02:58:03;;;;;;;5.68;4.07;;;18.90;99.90;;;;;;5054613;28;20048;-51
2023/06/08 03:00:32;;;;;;;5.45;4.10;;;18.80;99.90;;;;;;5036491;28;20127;-50
2023/06/08 03:03:00;;;;;;;5.68;4.30;;;18.90;99.90;;;;;;5054656;28;20056;-50
2023/06/08 03:05:26;;;;;;;5.40;4.05;;;18.90;99.90;;;;;;5054754;28;20025;-50
2023/06/08 03:07:53;;;;;;;5.32;4.30;;;19.10;99.90;;;;;;5067745;28;20051;-50
2023/06/08 03:10:19;;;;;;;4.35;3.95;;;19.10;99.90;;;;;;5074520;28;20040;-50
2023/06/08 03:12:45;;;;;;;6.15;3.83;;;19.10;99.90;;;;;;5074556;28;20028;-50
2023/06/08 03:15:11;;;;;;;7.95;4.20;;;19.20;99.90;;;;;;5074600;28;20413;-50
2023/06/08 03:17:37;;;;;;;7.53;4.50;;;19.20;99.90;;;;;;5074630;28;20459;-50
2023/06/08 03:20:04;;;;;;;4.50;3.80;;;19.20;99.90;;;;;;5074398;28;20032;-50
2023/06/08 03:22:34;;;;;;;4.53;3.83;;;19.20;99.90;;;;;;5006453;28;20536;-50
2023/06/08 03:25:00;;;;;;;5.35;3.90;;;19.20;99.90;;;;;;5074765;28;20028;-50
2023/06/08 03:27:26;;;;;;;5.22;3.88;;;19.30;99.90;;;;;;5072610;28;20045;-50
2023/06/08 03:29:52;;;;;;;4.78;3.75;;;19.30;99.90;;;;;;5074297;28;20109;-50
2023/06/08 03:32:17;;;;;;;9.15;4.43;;;19.30;99.90;;;;;;5073487;28;20040;-50
2023/06/08 03:34:44;;;;;;;5.40;4.00;;;19.30;99.90;;;;;;5072723;28;20110;-50
2023/06/08 03:37:10;;;;;;;7.50;4.93;;;19.20;99.90;;;;;;5074080;28;20111;-50
2023/06/08 03:39:36;;;;;;;8.88;5.38;;;19.20;99.90;;;;;;5055405;28;20124;-50
2023/06/08 03:42:02;;;;;;;12.15;9.38;;;19.30;99.90;;;;;;5074419;28;20540;-51
2023/06/08 03:44:28;;;;;;;14.45;10.20;;;19.30;99.90;;;;;;5022357;28;20522;-50
2023/06/08 03:46:53;;;;;;;13.38;8.60;;;19.20;99.90;;;;;;5074048;28;20021;-48
2023/06/08 03:49:19;;;;;;;11.00;7.25;;;19.20;99.90;;;;;;5055358;28;20032;-50
2023/06/08 03:51:45;;;;;;;19.42;13.25;;;19.30;99.90;;;;;;5038791;28;20073;-50
2023/06/08 03:54:11;;;;;;;17.10;13.75;;;19.20;99.90;;;;;;5054947;28;20043;-50
2023/06/08 03:56:36;;;;;;;25.40;14.15;;;19.10;99.90;;;;;;5073869;28;20063;-51
2023/06/08 03:59:03;;;;;;;22.90;14.68;;;19.10;99.90;;;;;;5073676;28;20024;-50
2023/06/08 04:01:30;;;;;;;21.60;14.43;;;19.10;99.90;;;;;;5021926;28;20037;-50
2023/06/08 04:03:56;;;;;;;15.40;10.38;;;19.10;99.90;;;;;;5073851;28;20467;-50
2023/06/08 04:06:23;;;;;;;10.27;6.60;;;19.30;99.90;;;;;;5073483;28;20031;-50
2023/06/08 04:08:50;;;;;;;6.00;4.28;;;19.30;99.90;;;;;;5072138;28;20040;-49
2023/06/08 04:11:16;;;;;;;5.40;4.20;;;19.50;99.90;;;;;;5072505;28;20122;-51
2023/06/08 04:13:42;;;;;;;7.22;4.38;;;19.50;99.90;;;;;;5073600;28;20108;-50
2023/06/08 04:16:09;;;;;;;6.80;4.65;;;19.60;99.90;;;;;;5064562;28;20504;-50
2023/06/08 04:18:39;;;;;;;5.65;4.78;;;19.60;99.90;;;;;;5066826;28;20155;-50
2023/06/08 04:21:06;;;;;;;6.53;4.78;;;19.60;99.90;;;;;;5064653;28;20033;-50
2023/06/08 04:23:35;;;;;;;7.43;5.22;;;19.70;99.90;;;;;;5057796;28;20032;-50
2023/06/08 04:26:07;;;;;;;11.73;8.88;;;19.80;99.90;;;;;;5064982;28;20032;-50
2023/06/08 04:28:33;;;;;;;11.75;7.38;;;19.90;99.90;;;;;;5053240;28;20025;-50
2023/06/08 04:30:59;;;;;;;10.20;6.63;;;19.90;99.90;;;;;;5044248;28;20510;-51
2023/06/08 04:33:26;;;;;;;8.23;6.10;;;19.80;99.90;;;;;;5069474;28;20086;-51
2023/06/08 04:35:52;;;;;;;6.00;5.05;;;19.90;99.90;;;;;;5069508;28;20032;-50
2023/06/08 04:38:18;;;;;;;7.18;5.20;;;20.10;99.90;;;;;;5071906;28;20025;-50
2023/06/08 04:40:48;;;;;;;6.13;4.65;;;20.20;99.90;;;;;;5054523;28;20500;-51
2023/06/08 04:43:15;;;;;;;6.53;4.50;;;20.30;99.90;;;;;;5054068;28;20476;-50
2023/06/08 04:45:44;;;;;;;6.97;4.88;;;20.40;99.90;;;;;;5071980;28;20487;-50
2023/06/08 04:48:12;;;;;;;5.43;4.38;;;20.40;99.90;;;;;;5062383;28;20051;-50
2023/06/08 04:50:45;;;;;;;5.97;4.43;;;20.60;99.90;;;;;;5061301;28;20056;-50
2023/06/08 04:53:13;;;;;;;7.30;5.03;;;20.50;99.90;;;;;;5061978;28;20036;-50
2023/06/08 04:55:42;;;;;;;8.75;6.35;;;20.40;99.90;;;;;;5062735;28;20488;-50
2023/06/08 04:58:08;;;;;;;10.25;5.88;;;20.30;99.90;;;;;;5064341;28;20032;-50
2023/06/08 05:00:34;;;;;;;7.13;5.90;;;20.40;99.90;;;;;;5073030;28;20422;-50
2023/06/08 05:03:00;;;;;;;7.78;6.13;;;20.20;99.90;;;;;;5072622;28;20080;-50
2023/06/08 05:05:27;;;;;;;11.57;6.15;;;20.40;99.90;;;;;;5054092;28;20127;-50
2023/06/08 05:07:52;;;;;;;8.30;5.32;;;20.50;99.90;;;;;;5006377;28;20037;-50
2023/06/08 05:10:18;;;;;;;8.82;6.05;;;20.30;99.90;;;;;;5069356;28;20020;-50
2023/06/08 05:12:44;;;;;;;7.28;5.25;;;20.40;99.90;;;;;;5051011;28;20049;-50
2023/06/08 05:15:10;;;;;;;7.28;5.78;;;20.60;99.90;;;;;;5069031;28;20056;-50
2023/06/08 05:17:35;;;;;;;9.98;6.15;;;20.60;99.90;;;;;;5053300;28;20735;-50
2023/06/08 05:20:01;;;;;;;7.53;5.35;;;20.90;99.90;;;;;;5054135;28;20528;-50
2023/06/08 05:22:28;;;;;;;7.63;5.18;;;20.90;99.90;;;;;;5052597;28;20025;-50
2023/06/08 05:24:53;;;;;;;7.45;4.93;;;20.80;99.90;;;;;;5061474;28;20115;-50
2023/06/08 05:27:19;;;;;;;6.65;4.82;;;20.90;99.90;;;;;;5042566;28;20120;-50
2023/06/08 05:29:45;;;;;;;7.97;5.45;;;21.10;99.90;;;;;;5046853;28;20087;-50
2023/06/08 05:32:11;;;;;;;6.88;5.22;;;21.50;99.90;;;;;;5058310;28;20496;-51
2023/06/08 05:34:37;;;;;;;6.28;5.22;;;21.80;99.90;;;;;;5010874;28;20400;-50
2023/06/08 05:37:02;;;;;;;7.35;5.43;;;22.00;99.90;;;;;;5069986;28;20032;-50
2023/06/08 05:39:28;;;;;;;6.47;5.30;;;22.20;99.90;;;;;;5001163;28;20067;-50
2023/06/08 05:41:54;;;;;;;9.65;5.97;;;22.30;99.90;;;;;;5073004;28;20060;-50
2023/06/08 05:44:19;;;;;;;8.45;5.38;;;22.50;99.90;;;;;;5072517;28;20029;-50
2023/06/08 05:46:45;;;;;;;6.65;5.55;;;22.70;99.90;;;;;;5072772;28;20054;-50
2023/06/08 05:49:11;;;;;;;6.78;4.82;;;22.80;99.90;;;;;;5072922;28;20464;-50
2023/06/08 05:51:37;;;;;;;6.70;5.50;;;;;;;;;;5053611;28;20052;-51
2023/06/08 05:54:03;;;;;;;6.50;4.82;;;23.00;99.90;;;;;;5053941;28;20107;-50
2023/06/08 05:56:30;;;;;;;7.25;4.32;;;;;;;;;;5075958;28;20567;-50
2023/06/08 05:58:56;;;;;;;8.57;4.80;;;;;;;;;;5076089;28;20063;-50
2023/06/08 06:01:23;;;;;;;10.93;5.20;;;;;;;;;;5076173;28;20056;-50
2023/06/08 06:03:50;;;;;;;8.32;4.97;;;;;;;;;;5075907;28;20111;-50
2023/06/08 06:06:16;;;;;;;9.13;4.72;;;;;;;;;;5075818;28;20033;-51
2023/06/08 06:08:43;;;;;;;6.85;5.30;;;;;;;;;;5073968;28;20033;-50
2023/06/08 06:11:09;;;;;;;7.22;5.38;;;;;;;;;;5075886;28;20050;-50
2023/06/08 06:13:36;;;;;;;6.70;5.78;;;;;;;;;;5076212;28;20082;-51
2023/06/08 06:16:02;;;;;;;9.38;6.57;;;;;;;;;;5057539;28;20074;-50
2023/06/08 06:18:28;;;;;;;11.32;8.20;;;23.60;99.90;;;;;;5076029;28;20107;-50
2023/06/08 06:20:53;;;;;;;11.05;9.18;;;23.30;99.90;;;;;;5075520;28;20428;-50
2023/06/08 06:23:19;;;;;;;15.20;10.65;;;23.40;99.90;;;;;;5057054;28;20043;-51
2023/06/08 06:25:45;;;;;;;19.98;13.15;;;23.40;99.90;;;;;;5075756;28;20040;-50
2023/06/08 06:28:11;;;;;;;16.48;11.63;;;23.50;99.90;;;;;;5057038;28;20431;-50
2023/06/08 06:30:37;;;;;;;19.35;13.70;;;23.70;99.90;;;;;;5075373;28;20415;-52
2023/06/08 06:33:03;;;;;;;20.95;14.65;;;;;;;;;;5074975;28;20048;-50
2023/06/08 06:35:29;;;;;;;26.60;17.80;;;;;;;;;;5056826;28;20415;-50
2023/06/08 06:37:55;;;;;;;32.10;20.58;;;24.00;99.90;;;;;;5056718;28;20064;-51
2023/06/08 06:40:21;;;;;;;28.10;18.38;;;24.00;99.90;;;;;;5056777;28;20044;-50
2023/06/08 06:42:48;;;;;;;24.27;16.23;;;;;;;;;;5075460;28;20082;-50
2023/06/08 06:45:14;;;;;;;20.50;14.05;;;;;;;;;;5075347;28;20046;-50
2023/06/08 06:47:40;;;;;;;22.23;15.18;;;;;;;;;;5075715;28;20107;-50
2023/06/08 06:50:06;;;;;;;22.73;15.88;;;;;;;;;;5075260;28;20039;-50
2023/06/08 06:52:33;;;;;;;20.15;12.93;;;;;;;;;;5075412;28;20044;-50
2023/06/08 06:55:01;;;;;;;19.30;13.10;;;;;;;;;;5056342;28;20484;-50
2023/06/08 06:57:28;;;;;;;18.25;12.95;;;;;;;;;;5075148;28;20047;-50
2023/06/08 06:59:55;;;;;;;15.35;10.63;;;;;;;;;;5056573;28;20380;-50
2023/06/08 07:02:23;;;;;;;11.48;8.27;;;24.80;99.90;;;;;;5074762;28;20139;-51
2023/06/08 07:04:52;;;;;;;11.35;8.55;;;24.40;99.90;;;;;;5071043;28;20036;-50
2023/06/08 07:07:18;;;;;;;15.57;9.02;;;24.30;99.90;;;;;;5067126;28;20056;-51
2023/06/08 07:09:44;;;;;;;13.45;9.15;;;24.60;99.90;;;;;;5055066;28;20028;-50
2023/06/08 07:12:10;;;;;;;12.45;9.57;;;24.80;99.90;;;;;;5035987;28;20049;-51
2023/06/08 07:14:36;;;;;;;13.75;8.48;;;24.80;99.90;;;;;;4986969;28;20044;-50
2023/06/08 07:17:02;;;;;;;9.88;7.30;;;24.90;99.90;;;;;;5054711;28;20412;-50
2023/06/08 07:19:27;;;;;;;11.02;7.75;;;25.00;99.90;;;;;;5054844;28;20036;-51
2023/06/08 07:21:54;;;;;;;10.18;7.85;;;;;;;;;;5054529;28;20028;-51
2023/06/08 07:24:21;;;;;;;13.35;7.13;;;;;;;;;;5019631;28;20385;-50
2023/06/08 07:26:47;;;;;;;8.98;6.88;;;;;;;;;;5054616;28;20029;-50
2023/06/08 07:29:13;;;;;;;8.60;6.18;;;;;;;;;;5054940;28;20536;-51
2023/06/08 07:31:40;;;;;;;8.70;6.82;;;;;;;;;;5035729;28;20056;-50
2023/06/08 07:34:08;;;;;;;10.48;7.07;;;;;;;;;;5054240;28;20472;-50
2023/06/08 07:36:35;;;;;;;10.60;7.38;;;;;;;;;;5036443;28;20044;-50
2023/06/08 07:39:03;;;;;;;8.95;7.88;;;;;;;;;;5054316;28;20055;-50
2023/06/08 07:41:29;;;;;;;9.40;7.57;;;;;;;;;;5054195;28;20033;-50
2023/06/08 07:43:55;;;;;;;11.20;7.38;;;;;;;;;;5054260;28;20447;-50
2023/06/08 07:46:22;;;;;;;9.75;6.90;;;;;;;;;;5054435;28;20025;-50
2023/06/08 07:48:48;;;;;;;9.30;6.97;;;;;;;;;;5054321;28;20033;-52
2023/06/08 07:51:14;;;;;;;10.18;7.00;;;;;;;;;;5054383;28;20511;-50
2023/06/08 07:53:41;;;;;;;8.07;7.22;;;;;;;;;;5054094;28;20120;-50
2023/06/08 07:56:07;;;;;;;8.10;7.03;;;;;;;;;;5053944;28;20037;-50
2023/06/08 07:58:33;;;;;;;9.57;6.53;;;;;;;;;;5053850;28;20064;-50
2023/06/08 08:01:00;;;;;;;9.95;7.03;;;;;;;;;;5053463;28;20103;-50
2023/06/08 08:03:26;;;;;;;9.90;7.20;;;;;;;;;;5035744;28;20462;-50
2023/06/08 08:05:53;;;;;;;9.13;6.65;;;;;;;;;;5053966;28;20021;-51
2023/06/08 08:08:19;;;;;;;8.73;7.13;;;;;;;;;;5053659;28;20021;-50
2023/06/08 08:10:45;;;;;;;8.63;6.55;;;;;;;;;;5054225;28;20053;-50
2023/06/08 08:13:12;;;;;;;7.07;5.65;;;;;;;;;;5053494;28;20041;-50
2023/06/08 08:15:41;;;;;;;8.10;6.93;;;;;;;;;;5053658;28;20032;-50
2023/06/08 08:18:08;;;;;;;6.72;5.93;;;;;;;;;;5052773;28;20028;-50
2023/06/08 08:20:34;;;;;;;9.52;7.25;;;;;;;;;;5034958;28;20033;-50
2023/06/08 08:23:00;;;;;;;10.27;7.43;;;;;;;;;;5053302;28;20036;-56
2023/06/08 08:25:26;;;;;;;8.23;7.32;;;;;;;;;;5053548;28;20036;-50
2023/06/08 08:27:53;;;;;;;7.82;7.03;;;;;;;;;;5053677;28;20025;-50
2023/06/08 08:30:19;;;;;;;9.18;6.68;;;;;;;;;;5053410;28;20037;-50
2023/06/08 08:32:45;;;;;;;8.68;6.50;;;28.40;99.90;;;;;;5053479;28;20120;-50
2023/06/08 08:35:11;;;;;;;8.48;5.70;;;;;;;;;;5053217;28;20498;-50
2023/06/08 08:37:37;;;;;;;10.02;6.38;;;;;;;;;;5053119;28;20071;-50
2023/06/08 08:40:05;;;;;;;6.60;5.90;;;;;;;;;;5034797;28;20033;-51
2023/06/08 08:42:32;;;;;;;7.10;6.07;;;;;;;;;;5018865;28;20044;-50
2023/06/08 08:45:00;;;;;;;8.13;6.68;;;;;;;;;;5053013;28;20029;-52
2023/06/08 08:47:29;;;;;;;9.00;6.70;;;;;;;;;;5053147;28;20465;-50
2023/06/08 08:50:04;;;;;;;7.95;6.20;;;29.00;99.90;;;;;;5053122;28;20525;-50
2023/06/08 08:52:33;;;;;;;6.78;5.93;;;28.90;99.90;;;;;;5053536;28;20041;-51
2023/06/08 08:55:00;;;;;;;7.68;6.78;;;29.00;99.90;;;;;;5052960;28;20033;-50
2023/06/08 08:57:30;;;;;;;8.43;6.53;;;28.80;99.90;;;;;;5052897;28;20107;-51
2023/06/08 08:59:56;;;;;;;7.82;4.70;;;28.60;99.90;;;;;;5052933;28;20036;-50
2023/06/08 09:02:22;;;;;;;6.22;5.18;;;28.30;99.90;;;;;;5052654;28;20188;-50
2023/06/08 09:04:49;;;;;;;5.53;4.63;;;28.50;99.90;;;;;;5052919;28;20071;-50
2023/06/08 09:07:21;;;;;;;5.95;4.63;;;28.70;99.90;;;;;;5017837;28;20044;-51
2023/06/08 09:10:13;;;;;;;7.68;4.13;;;28.70;99.90;;;;;;5053513;28;20021;-50
2023/06/08 09:12:39;;;;;;;8.23;5.25;;;;;;;;;;5052805;28;20453;-50
2023/06/08 09:15:07;;;;;;;4.97;4.38;;;;;;;;;;5052079;28;20549;-50
2023/06/08 09:17:37;;;;;;;4.45;3.85;;;;;;;;;;5053034;28;20155;-50
2023/06/08 09:20:03;;;;;;;6.10;4.45;;;;;;;;;;5053169;28;20037;-50
2023/06/08 09:22:29;;;;;;;4.55;4.03;;;;;;;;;;5055106;28;20037;-50
2023/06/08 09:24:57;;;;;;;4.97;4.45;;;30.10;99.90;;;;;;5037555;28;20039;-50
2023/06/08 09:27:26;;;;;;;4.88;4.35;;;30.10;99.90;;;;;;5072933;28;20029;-50
2023/06/08 09:29:54;;;;;;;4.38;3.85;;;;;;;;;;5075664;28;20039;-50
2023/06/08 09:32:25;;;;;;;4.35;3.70;;;;;;;;;;5047980;28;20084;-50
2023/06/08 09:34:52;;;;;;;5.00;4.10;;;;;;;;;;5039089;28;20045;-50
2023/06/08 09:37:21;;;;;;;4.47;3.97;;;;;;;;;;5056566;28;20087;-50
2023/06/08 09:39:47;;;;;;;4.40;3.72;;;;;;;;;;5072334;28;20032;-50
2023/06/08 09:42:13;;;;;;;7.45;4.50;;;30.30;99.90;;;;;;5057801;28;20028;-50
2023/06/08 09:44:39;;;;;;;6.22;4.10;;;30.10;99.90;;;;;;5057783;28;20048;-50
2023/06/08 09:47:25;;;;;;;4.93;4.43;;;30.20;99.90;;;;;;5076211;28;20035;-50
2023/06/08 09:49:54;;;;;;;5.05;4.30;;;30.20;99.90;;;;;;5075620;28;20055;-50
2023/06/08 09:52:22;;;;;;;6.13;4.03;;;30.10;99.90;;;;;;5072009;28;20047;-50
2023/06/08 09:54:48;;;;;;;5.35;4.00;;;30.30;99.90;;;;;;5076529;28;20025;-50
2023/06/08 09:57:15;;;;;;;4.32;3.92;;;;;;;;;;5065471;28;20024;-51
2023/06/08 09:59:54;;;;;;;5.50;4.30;;;;;;;;;;5065947;28;20028;-50
2023/06/08 10:02:23;;;;;;;5.55;4.68;;;;;;;;;;5065665;28;20056;-50
2023/06/08 10:04:53;;;;;;;5.63;4.15;;;;;;;;;;5064189;28;20078;-51
2023/06/08 10:07:24;;;;;;;6.32;4.03;;;;;;;;;;5065120;28;20100;-51
2023/06/08 10:09:53;;;;;;;7.63;4.32;;;;;;;;;;5061327;28;20056;-52
2023/06/08 10:12:19;;;;;;;6.70;4.38;;;;;;;;;;5065800;28;20021;-52
2023/06/08 10:14:48;;;;;;;8.57;4.82;;;30.20;99.90;;;;;;5069194;28;20025;-51
2023/06/08 10:17:15;;;;;;;5.43;4.35;;;30.20;99.90;;;;;;5027175;28;20135;-51
2023/06/08 10:19:41;;;;;;;6.32;4.50;;;30.60;99.90;;;;;;5074313;28;20036;-51
2023/06/08 10:22:08;;;;;;;6.25;4.88;;;30.90;99.90;;;;;;5070720;28;20036;-51
2023/06/08 10:24:34;;;;;;;5.38;4.22;;;30.40;99.90;;;;;;5069783;28;20611;-53
2023/06/08 10:27:29;;;;;;;8.68;4.38;;;30.30;99.90;;;;;;5059252;28;20480;-51
2023/06/08 10:29:56;;;;;;;5.78;4.60;;;30.80;99.90;;;;;;5066815;28;20051;-51
2023/06/08 10:32:42;;;;;;;6.30;4.65;;;30.50;99.90;;;;;;5069452;28;20041;-52
2023/06/08 10:35:10;;;;;;;5.68;4.68;;;;;;;;;;5046983;28;20039;-51
2023/06/08 10:37:37;;;;;;;8.68;4.80;;;31.70;99.90;;;;;;5063570;28;20578;-49
2023/06/08 10:40:10;;;;;;;6.45;4.95;;;31.90;99.90;;;;;;5064674;28;20475;-50
2023/06/08 10:42:55;;;;;;;7.10;4.93;;;32.30;99.90;;;;;;5039046;28;20471;-50
2023/06/08 10:45:33;;;;;;;6.95;5.32;;;31.90;99.90;;;;;;5063899;28;20047;-49
2023/06/08 10:48:06;;;;;;;6.50;5.05;;;32.20;99.90;;;;;;5053649;28;20044;-49
2023/06/08 10:50:39;;;;;;;7.25;4.57;;;32.40;99.90;;;;;;5065674;28;20073;-51
2023/06/08 10:53:05;;;;;;;11.43;5.22;;;32.20;99.90;;;;;;5063638;28;20044;-50
2023/06/08 10:55:31;;;;;;;5.43;4.18;;;31.30;99.90;;;;;;5065243;28;20079;-50
2023/06/08 10:58:17;;;;;;;5.38;3.67;;;31.50;99.90;;;;;;5063847;28;20028;-52
2023/06/08 11:00:43;;;;;;;5.80;4.65;;;31.90;99.90;;;;;;5063686;28;20033;-49
2023/06/08 11:03:11;;;;;;;9.20;4.57;;;31.30;99.90;;;;;;5028845;28;20483;-54
2023/06/08 11:05:39;;;;;;;4.65;4.13;;;31.40;99.90;;;;;;5066672;28;20077;-53
2023/06/08 11:08:09;;;;;;;4.53;4.00;;;30.70;99.90;;;;;;5065133;28;20020;-47
2023/06/08 11:10:39;;;;;;;6.40;4.82;;;30.80;99.90;;;;;;5045838;28;20036;-55
2023/06/08 11:13:05;;;;;;;5.35;3.90;;;31.00;99.90;;;;;;5063312;28;20377;-52
2023/06/08 11:15:31;;;;;;;5.13;3.92;;;31.40;99.90;;;;;;5029049;28;20093;-51
2023/06/08 11:17:58;;;;;;;6.15;4.22;;;31.60;99.90;;;;;;5045888;28;20048;-53
2023/06/08 11:20:28;;;;;;;6.55;4.93;;;31.90;99.90;;;;;;5063154;28;20029;-50
2023/06/08 11:22:54;;;;;;;5.10;4.60;;;31.80;99.90;;;;;;5027015;28;20051;-47
2023/06/08 11:25:27;;;;;;;7.55;4.95;;;31.10;99.90;;;;;;5026238;28;20063;-50
2023/06/08 11:27:55;;;;;;;6.30;4.10;;;31.40;99.90;;;;;;5064433;28;20089;-51
2023/06/08 11:30:22;;;;;;;5.38;4.10;;;31.60;99.90;;;;;;5064636;28;20048;-50
2023/06/08 11:32:50;;;;;;;5.97;3.60;;;31.70;99.90;;;;;;5026365;28;20053;-53
2023/06/08 11:35:20;;;;;;;5.55;3.90;;;31.50;99.90;;;;;;5043699;28;20082;-54
2023/06/08 11:37:49;;;;;;;5.03;4.32;;;31.60;99.90;;;;;;5047207;28;20124;-47
2023/06/08 11:40:15;;;;;;;5.65;3.85;;;;;;;;;;5052119;28;20120;-52
2023/06/08 11:42:43;;;;;;;4.53;4.00;;;32.60;99.90;;;;;;5016192;28;20040;-50
2023/06/08 11:45:11;;;;;;;5.45;3.85;;;32.60;99.90;;;;;;5012050;28;20504;-51
2023/06/08 11:47:37;;;;;;;4.72;3.90;;;;;;;;;;5011991;28;20045;-53
2023/06/08 11:50:04;;;;;;;6.07;3.78;;;;;;;;;;5008140;28;20131;-49
2023/06/08 11:52:39;;;;;;;5.93;3.90;;;;;;;;;;5050754;28;20041;-50
2023/06/08 11:55:12;;;;;;;5.30;4.00;;;;;;;;;;5034775;28;20563;-48
2023/06/08 11:57:51;;;;;;;7.63;3.50;;;32.30;99.90;;;;;;5034344;28;20037;-50
2023/06/08 12:00:35;;;;;;;4.65;3.20;;;32.80;99.90;;;;;;5051253;28;20075;-51
2023/06/08 12:03:01;;;;;;;7.97;3.95;;;32.90;99.90;;;;;;5000277;28;20045;-52
2023/06/08 12:05:32;;;;;;;4.45;3.40;;;32.60;99.90;;;;;;5053234;28;20123;-51
2023/06/08 12:07:58;;;;;;;5.37;3.97;;;32.80;99.90;;;;;;5045849;28;20119;-56
2023/06/08 12:10:31;;;;;;;4.43;3.42;;;33.10;99.90;;;;;;5073624;28;20301;-56
2023/06/08 12:12:57;;;;;;;6.07;3.78;;;;;;;;;;5035440;28;20072;-54
2023/06/08 12:15:26;;;;;;;4.43;3.53;;;;;;;;;;5058721;28;20036;-57
2023/06/08 12:17:53;;;;;;;6.05;4.15;;;;;;;;;;5061690;28;20064;-55
2023/06/08 12:20:19;;;;;;;6.78;3.75;;;;;;;;;;5062030;28;20472;-53
2023/06/08 12:22:46;;;;;;;5.80;4.03;;;;;;;;;;5067508;28;20028;-57
2023/06/08 12:25:12;;;;;;;4.93;4.10;;;;;;;;;;5051317;28;20033;-54
2023/06/08 12:27:39;;;;;;;4.45;3.95;;;;;;;;;;5049637;28;20362;-56
2023/06/08 12:30:07;;;;;;;5.55;3.97;;;;;;;;;;5052956;28;20461;-53
2023/06/08 12:32:33;;;;;;;4.75;4.25;;;;;;;;;;5072495;28;20079;-53
2023/06/08 12:34:59;;;;;;;4.43;3.80;;;;;;;;;;5052746;28;20040;-50
2023/06/08 12:37:25;;;;;;;4.20;3.72;;;;;;;;;;5072141;28;20067;-53
2023/06/08 12:39:52;;;;;;;4.40;3.88;;;;;;;;;;5073251;28;20031;-52
2023/06/08 12:42:20;;;;;;;5.07;4.15;;;;;;;;;;5073010;28;20095;-53
2023/06/08 12:44:47;;;;;;;4.70;4.00;;;;;;;;;;5073270;28;20036;-53
2023/06/08 12:47:13;;;;;;;5.40;4.25;;;33.50;99.90;;;;;;5072957;28;20428;-55
2023/06/08 12:49:41;;;;;;;6.25;4.13;;;33.20;97.70;;;;;;5073192;28;20078;-54
2023/06/08 12:52:07;;;;;;;5.47;3.70;;;32.80;98.90;;;;;;5054298;28;20048;-53
2023/06/08 12:54:33;;;;;;;5.05;4.55;;;33.10;98.70;;;;;;5072967;28;20032;-54
2023/06/08 12:56:59;;;;;;;5.05;4.35;;;33.10;98.90;;;;;;5073013;28;20372;-52
2023/06/08 12:59:25;;;;;;;4.13;3.72;;;32.80;99.00;;;;;;5072767;28;20025;-53
2023/06/08 13:01:51;;;;;;;4.13;3.70;;;32.40;98.20;;;;;;5073000;28;20151;-52
2023/06/08 13:04:17;;;;;;;6.70;4.25;;;32.50;97.80;;;;;;5072693;28;20115;-54
2023/06/08 13:06:42;;;;;;;4.22;3.83;;;33.00;99.10;;;;;;5073008;28;20039;-53
2023/06/08 13:09:08;;;;;;;4.75;3.90;;;32.90;97.90;;;;;;5054421;28;20043;-53
2023/06/08 13:11:35;;;;;;;4.28;3.40;;;32.40;98.60;;;;;;5037289;28;20044;-54
2023/06/08 13:14:01;;;;;;;4.43;3.90;;;32.60;98.60;;;;;;5072806;28;20546;-52
2023/06/08 13:16:26;;;;;;;6.65;3.67;;;32.50;98.60;;;;;;5053997;28;20044;-57